sensor_id;sensor_type;location;lat;lon;timestamp;P1;durP1;ratioP1;P2;durP2;ratioP2
13455;SDS011;6800;50.940;6.940;2023-03-01T00:03:12;10.00;;;9.10;;
13455;SDS011;6800;50.940;6.940;2023-03-01T00:07:14;9.97;;;8.80;;
13455;SDS011;6800;50.940;6.940;2023-03-01T00:15:19;9.30;;;8.37;;
13455;SDS011;6800;50.940;6.940;2023-03-01T00:19:20;9.93;;;9.00;;
13455;SDS011;6800;50.940;6.940;2023-03-01T00:23:23;10.87;;;8.67;;
13455;SDS011;6800;50.940;6.940;2023-03-01T00:27:28;9.67;;;8.30;;
13455;SDS011;6800;50.940;6.940;2023-03-01T00:31:30;9.30;;;8.40;;
13455;SDS011;6800;50.940;6.940;2023-03-01T00:35:33;9.50;;;8.50;;
13455;SDS011;6800;50.940;6.940;2023-03-01T00:39:34;8.87;;;8.07;;
13455;SDS011;6800;50.940;6.940;2023-03-01T00:43:36;8.50;;;7.70;;
13455;SDS011;6800;50.940;6.940;2023-03-01T00:47:38;9.03;;;8.13;;
13455;SDS011;6800;50.940;6.940;2023-03-01T00:51:39;8.27;;;7.47;;
13455;SDS011;6800;50.940;6.940;2023-03-01T00:55:42;9.50;;;8.67;;
13455;SDS011;6800;50.940;6.940;2023-03-01T00:59:43;8.90;;;8.10;;
13455;SDS011;6800;50.940;6.940;2023-03-01T01:03:49;9.47;;;8.10;;
13455;SDS011;6800;50.940;6.940;2023-03-01T01:07:52;11.00;;;8.57;;
13455;SDS011;6800;50.940;6.940;2023-03-01T01:11:56;9.10;;;8.20;;
13455;SDS011;6800;50.940;6.940;2023-03-01T01:16:01;8.40;;;7.60;;
13455;SDS011;6800;50.940;6.940;2023-03-01T01:20:03;9.27;;;8.37;;
13455;SDS011;6800;50.940;6.940;2023-03-01T01:24:05;8.97;;;8.17;;
13455;SDS011;6800;50.940;6.940;2023-03-01T01:28:06;9.80;;;8.90;;
13455;SDS011;6800;50.940;6.940;2023-03-01T01:32:08;9.50;;;8.57;;
13455;SDS011;6800;50.940;6.940;2023-03-01T01:36:09;9.23;;;8.37;;
13455;SDS011;6800;50.940;6.940;2023-03-01T01:40:11;9.57;;;8.77;;
13455;SDS011;6800;50.940;6.940;2023-03-01T01:48:21;10.23;;;9.33;;
13455;SDS011;6800;50.940;6.940;2023-03-01T01:52:26;11.53;;;10.43;;
13455;SDS011;6800;50.940;6.940;2023-03-01T01:56:31;10.03;;;8.77;;
13455;SDS011;6800;50.940;6.940;2023-03-01T02:00:34;9.63;;;8.73;;
13455;SDS011;6800;50.940;6.940;2023-03-01T02:04:35;10.30;;;9.20;;
13455;SDS011;6800;50.940;6.940;2023-03-01T02:08:37;9.67;;;8.77;;
13455;SDS011;6800;50.940;6.940;2023-03-01T02:12:42;10.23;;;9.23;;
13455;SDS011;6800;50.940;6.940;2023-03-01T02:16:44;10.13;;;8.97;;
13455;SDS011;6800;50.940;6.940;2023-03-01T02:29:19;10.40;;;9.43;;
13455;SDS011;6800;50.940;6.940;2023-03-01T02:33:21;12.53;;;11.43;;
13455;SDS011;6800;50.940;6.940;2023-03-01T02:37:23;13.07;;;11.87;;
13455;SDS011;6800;50.940;6.940;2023-03-01T02:41:27;13.07;;;12.00;;
13455;SDS011;6800;50.940;6.940;2023-03-01T02:45:31;12.83;;;11.80;;
13455;SDS011;6800;50.940;6.940;2023-03-01T02:49:33;13.50;;;12.40;;
13455;SDS011;6800;50.940;6.940;2023-03-01T02:58:08;13.77;;;12.57;;
13455;SDS011;6800;50.940;6.940;2023-03-01T03:02:27;12.57;;;11.57;;
13455;SDS011;6800;50.940;6.940;2023-03-01T03:06:39;12.23;;;11.23;;
13455;SDS011;6800;50.940;6.940;2023-03-01T03:10:41;12.47;;;11.43;;
13455;SDS011;6800;50.940;6.940;2023-03-01T03:14:44;12.87;;;11.87;;
13455;SDS011;6800;50.940;6.940;2023-03-01T03:18:45;12.33;;;11.33;;
13455;SDS011;6800;50.940;6.940;2023-03-01T03:22:47;12.90;;;11.60;;
13455;SDS011;6800;50.940;6.940;2023-03-01T03:26:51;12.70;;;11.60;;
13455;SDS011;6800;50.940;6.940;2023-03-01T03:30:52;14.53;;;13.20;;
13455;SDS011;6800;50.940;6.940;2023-03-01T03:34:54;13.00;;;11.83;;
13455;SDS011;6800;50.940;6.940;2023-03-01T03:38:55;12.90;;;11.90;;
13455;SDS011;6800;50.940;6.940;2023-03-01T03:42:56;13.23;;;12.10;;
13455;SDS011;6800;50.940;6.940;2023-03-01T03:46:58;13.50;;;12.23;;
13455;SDS011;6800;50.940;6.940;2023-03-01T03:50:59;14.33;;;13.13;;
13455;SDS011;6800;50.940;6.940;2023-03-01T03:55:00;12.57;;;11.57;;
13455;SDS011;6800;50.940;6.940;2023-03-01T03:59:02;13.23;;;12.03;;
13455;SDS011;6800;50.940;6.940;2023-03-01T04:03:03;13.93;;;12.77;;
13455;SDS011;6800;50.940;6.940;2023-03-01T04:07:05;14.90;;;13.60;;
13455;SDS011;6800;50.940;6.940;2023-03-01T04:11:06;14.83;;;13.53;;
13455;SDS011;6800;50.940;6.940;2023-03-01T04:15:26;15.20;;;13.90;;
13455;SDS011;6800;50.940;6.940;2023-03-01T04:19:28;15.23;;;13.90;;
13455;SDS011;6800;50.940;6.940;2023-03-01T04:23:29;14.83;;;13.53;;
13455;SDS011;6800;50.940;6.940;2023-03-01T04:27:34;14.30;;;13.00;;
13455;SDS011;6800;50.940;6.940;2023-03-01T04:31:36;16.63;;;15.23;;
13455;SDS011;6800;50.940;6.940;2023-03-01T04:35:37;18.23;;;15.47;;
13455;SDS011;6800;50.940;6.940;2023-03-01T04:39:40;16.03;;;14.73;;
13455;SDS011;6800;50.940;6.940;2023-03-01T04:43:46;16.03;;;14.63;;
13455;SDS011;6800;50.940;6.940;2023-03-01T04:47:47;15.60;;;14.20;;
13455;SDS011;6800;50.940;6.940;2023-03-01T04:51:49;16.30;;;14.90;;
13455;SDS011;6800;50.940;6.940;2023-03-01T04:55:51;14.37;;;12.87;;
13455;SDS011;6800;50.940;6.940;2023-03-01T04:59:52;14.97;;;13.57;;
13455;SDS011;6800;50.940;6.940;2023-03-01T05:03:54;16.87;;;15.37;;
13455;SDS011;6800;50.940;6.940;2023-03-01T05:07:57;16.40;;;14.77;;
13455;SDS011;6800;50.940;6.940;2023-03-01T05:12:00;16.17;;;14.80;;
13455;SDS011;6800;50.940;6.940;2023-03-01T05:16:01;15.20;;;13.87;;
13455;SDS011;6800;50.940;6.940;2023-03-01T05:20:04;16.80;;;15.30;;
13455;SDS011;6800;50.940;6.940;2023-03-01T05:24:09;15.93;;;14.57;;
13455;SDS011;6800;50.940;6.940;2023-03-01T05:28:12;16.50;;;15.00;;
13455;SDS011;6800;50.940;6.940;2023-03-01T05:32:14;17.57;;;15.87;;
13455;SDS011;6800;50.940;6.940;2023-03-01T05:36:16;16.67;;;15.07;;
13455;SDS011;6800;50.940;6.940;2023-03-01T05:40:20;17.43;;;15.63;;
13455;SDS011;6800;50.940;6.940;2023-03-01T05:44:23;17.07;;;15.53;;
13455;SDS011;6800;50.940;6.940;2023-03-01T05:48:26;16.90;;;15.30;;
13455;SDS011;6800;50.940;6.940;2023-03-01T05:52:27;17.97;;;16.43;;
13455;SDS011;6800;50.940;6.940;2023-03-01T05:56:32;17.10;;;15.50;;
13455;SDS011;6800;50.940;6.940;2023-03-01T06:00:40;16.67;;;15.17;;
13455;SDS011;6800;50.940;6.940;2023-03-01T06:04:43;18.10;;;14.73;;
13455;SDS011;6800;50.940;6.940;2023-03-01T06:08:44;16.07;;;14.47;;
13455;SDS011;6800;50.940;6.940;2023-03-01T06:12:45;17.13;;;15.50;;
13455;SDS011;6800;50.940;6.940;2023-03-01T06:16:47;16.43;;;14.83;;
13455;SDS011;6800;50.940;6.940;2023-03-01T06:20:55;15.53;;;13.90;;
13455;SDS011;6800;50.940;6.940;2023-03-01T06:24:56;14.90;;;13.40;;
13455;SDS011;6800;50.940;6.940;2023-03-01T06:28:58;15.83;;;14.13;;
13455;SDS011;6800;50.940;6.940;2023-03-01T06:33:01;13.80;;;12.40;;
13455;SDS011;6800;50.940;6.940;2023-03-01T06:37:04;14.50;;;13.03;;
13455;SDS011;6800;50.940;6.940;2023-03-01T06:41:06;20.80;;;13.40;;
13455;SDS011;6800;50.940;6.940;2023-03-01T06:45:08;14.90;;;12.50;;
13455;SDS011;6800;50.940;6.940;2023-03-01T06:49:10;15.57;;;13.47;;
13455;SDS011;6800;50.940;6.940;2023-03-01T06:53:12;14.60;;;13.10;;
13455;SDS011;6800;50.940;6.940;2023-03-01T06:57:13;16.70;;;13.07;;
13455;SDS011;6800;50.940;6.940;2023-03-01T07:01:15;14.53;;;12.97;;
13455;SDS011;6800;50.940;6.940;2023-03-01T07:05:16;16.83;;;13.37;;
13455;SDS011;6800;50.940;6.940;2023-03-01T07:09:18;16.50;;;12.97;;
13455;SDS011;6800;50.940;6.940;2023-03-01T07:13:23;14.70;;;13.13;;
13455;SDS011;6800;50.940;6.940;2023-03-01T07:17:24;16.43;;;13.57;;
13455;SDS011;6800;50.940;6.940;2023-03-01T07:21:26;20.03;;;14.50;;
13455;SDS011;6800;50.940;6.940;2023-03-01T07:25:27;15.57;;;14.07;;
13455;SDS011;6800;50.940;6.940;2023-03-01T07:29:29;16.43;;;13.17;;
13455;SDS011;6800;50.940;6.940;2023-03-01T07:33:30;15.70;;;13.30;;
13455;SDS011;6800;50.940;6.940;2023-03-01T07:37:32;16.13;;;14.00;;
13455;SDS011;6800;50.940;6.940;2023-03-01T07:41:34;16.10;;;14.50;;
13455;SDS011;6800;50.940;6.940;2023-03-01T07:45:35;14.23;;;12.80;;
13455;SDS011;6800;50.940;6.940;2023-03-01T07:49:37;15.17;;;13.23;;
13455;SDS011;6800;50.940;6.940;2023-03-01T07:53:38;15.57;;;13.93;;
13455;SDS011;6800;50.940;6.940;2023-03-01T07:57:40;16.13;;;14.43;;
13455;SDS011;6800;50.940;6.940;2023-03-01T08:01:41;16.57;;;13.90;;
13455;SDS011;6800;50.940;6.940;2023-03-01T08:05:43;15.50;;;13.47;;
13455;SDS011;6800;50.940;6.940;2023-03-01T08:09:44;16.13;;;13.80;;
13455;SDS011;6800;50.940;6.940;2023-03-01T08:13:47;14.40;;;12.93;;
13455;SDS011;6800;50.940;6.940;2023-03-01T08:17:53;17.53;;;13.40;;
13455;SDS011;6800;50.940;6.940;2023-03-01T08:21:54;17.60;;;13.67;;
13455;SDS011;6800;50.940;6.940;2023-03-01T08:26:06;17.07;;;13.67;;
13455;SDS011;6800;50.940;6.940;2023-03-01T08:30:13;14.90;;;12.20;;
13455;SDS011;6800;50.940;6.940;2023-03-01T08:34:15;18.80;;;12.97;;
13455;SDS011;6800;50.940;6.940;2023-03-01T08:38:18;14.73;;;12.57;;
13455;SDS011;6800;50.940;6.940;2023-03-01T08:42:19;12.97;;;11.57;;
13455;SDS011;6800;50.940;6.940;2023-03-01T08:46:21;13.70;;;12.23;;
13455;SDS011;6800;50.940;6.940;2023-03-01T08:50:23;14.27;;;12.20;;
13455;SDS011;6800;50.940;6.940;2023-03-01T08:54:25;15.03;;;12.37;;
13455;SDS011;6800;50.940;6.940;2023-03-01T08:58:26;13.50;;;12.10;;
13455;SDS011;6800;50.940;6.940;2023-03-01T09:02:28;13.77;;;12.17;;
13455;SDS011;6800;50.940;6.940;2023-03-01T09:06:30;13.30;;;10.83;;
13455;SDS011;6800;50.940;6.940;2023-03-01T09:10:36;11.93;;;10.67;;
13455;SDS011;6800;50.940;6.940;2023-03-01T09:14:38;12.83;;;10.80;;
13455;SDS011;6800;50.940;6.940;2023-03-01T09:18:42;14.40;;;10.30;;
13455;SDS011;6800;50.940;6.940;2023-03-01T09:22:43;12.17;;;10.93;;
13455;SDS011;6800;50.940;6.940;2023-03-01T09:26:46;12.67;;;10.60;;
13455;SDS011;6800;50.940;6.940;2023-03-01T09:31:10;11.80;;;10.60;;
13455;SDS011;6800;50.940;6.940;2023-03-01T09:35:16;10.57;;;9.47;;
13455;SDS011;6800;50.940;6.940;2023-03-01T09:39:17;11.57;;;9.77;;
13455;SDS011;6800;50.940;6.940;2023-03-01T09:47:48;12.37;;;9.57;;
13455;SDS011;6800;50.940;6.940;2023-03-01T09:51:54;11.23;;;10.03;;
13455;SDS011;6800;50.940;6.940;2023-03-01T09:56:05;11.10;;;9.90;;
13455;SDS011;6800;50.940;6.940;2023-03-01T10:08:58;11.80;;;8.73;;
13455;SDS011;6800;50.940;6.940;2023-03-01T10:13:21;10.83;;;9.27;;
13455;SDS011;6800;50.940;6.940;2023-03-01T10:22:19;11.27;;;9.30;;
13455;SDS011;6800;50.940;6.940;2023-03-01T10:26:36;9.87;;;8.87;;
13455;SDS011;6800;50.940;6.940;2023-03-01T10:30:45;10.90;;;8.53;;
13455;SDS011;6800;50.940;6.940;2023-03-01T10:34:47;10.03;;;9.03;;
13455;SDS011;6800;50.940;6.940;2023-03-01T10:38:51;10.50;;;9.50;;
13455;SDS011;6800;50.940;6.940;2023-03-01T10:42:57;10.20;;;8.87;;
13455;SDS011;6800;50.940;6.940;2023-03-01T10:47:00;9.83;;;8.70;;
13455;SDS011;6800;50.940;6.940;2023-03-01T10:51:06;10.07;;;8.93;;
13455;SDS011;6800;50.940;6.940;2023-03-01T11:00:02;9.03;;;8.10;;
13455;SDS011;6800;50.940;6.940;2023-03-01T11:04:22;9.40;;;8.50;;
13455;SDS011;6800;50.940;6.940;2023-03-01T11:13:08;12.33;;;9.57;;
13455;SDS011;6800;50.940;6.940;2023-03-01T11:17:17;11.73;;;8.67;;
13455;SDS011;6800;50.940;6.940;2023-03-01T11:21:24;10.23;;;9.23;;
13455;SDS011;6800;50.940;6.940;2023-03-01T11:25:31;11.43;;;9.97;;
13455;SDS011;6800;50.940;6.940;2023-03-01T11:29:38;11.80;;;10.60;;
13455;SDS011;6800;50.940;6.940;2023-03-01T11:46:42;10.80;;;9.70;;
13455;SDS011;6800;50.940;6.940;2023-03-01T11:50:52;10.57;;;9.47;;
13455;SDS011;6800;50.940;6.940;2023-03-01T12:03:30;10.73;;;9.63;;
13455;SDS011;6800;50.940;6.940;2023-03-01T12:07:46;10.07;;;9.07;;
13455;SDS011;6800;50.940;6.940;2023-03-01T12:12:11;10.67;;;9.43;;
13455;SDS011;6800;50.940;6.940;2023-03-01T12:25:20;10.40;;;9.40;;
13455;SDS011;6800;50.940;6.940;2023-03-01T12:29:42;12.43;;;9.90;;
13455;SDS011;6800;50.940;6.940;2023-03-01T12:38:32;13.07;;;10.33;;
13455;SDS011;6800;50.940;6.940;2023-03-01T12:47:11;16.23;;;11.23;;
13455;SDS011;6800;50.940;6.940;2023-03-01T12:51:23;14.53;;;10.30;;
13455;SDS011;6800;50.940;6.940;2023-03-01T12:59:41;11.90;;;10.73;;
13455;SDS011;6800;50.940;6.940;2023-03-01T13:03:57;12.63;;;11.33;;
13455;SDS011;6800;50.940;6.940;2023-03-01T13:08:31;11.63;;;10.43;;
13455;SDS011;6800;50.940;6.940;2023-03-01T13:16:57;11.90;;;10.73;;
13455;SDS011;6800;50.940;6.940;2023-03-01T13:20:59;12.50;;;11.20;;
13455;SDS011;6800;50.940;6.940;2023-03-01T13:25:10;12.60;;;11.07;;
13455;SDS011;6800;50.940;6.940;2023-03-01T13:29:25;14.37;;;11.27;;
13455;SDS011;6800;50.940;6.940;2023-03-01T13:37:31;12.07;;;10.67;;
13455;SDS011;6800;50.940;6.940;2023-03-01T13:45:40;11.70;;;10.60;;
13455;SDS011;6800;50.940;6.940;2023-03-01T13:49:48;11.90;;;10.70;;
13455;SDS011;6800;50.940;6.940;2023-03-01T13:53:58;14.30;;;10.60;;
13455;SDS011;6800;50.940;6.940;2023-03-01T13:58:01;10.83;;;9.73;;
13455;SDS011;6800;50.940;6.940;2023-03-01T14:02:16;9.83;;;8.93;;
13455;SDS011;6800;50.940;6.940;2023-03-01T14:06:20;11.60;;;10.23;;
13455;SDS011;6800;50.940;6.940;2023-03-01T14:10:25;12.07;;;10.87;;
13455;SDS011;6800;50.940;6.940;2023-03-01T14:18:49;10.73;;;9.67;;
13455;SDS011;6800;50.940;6.940;2023-03-01T14:22:57;10.67;;;9.53;;
13455;SDS011;6800;50.940;6.940;2023-03-01T14:27:01;9.33;;;8.43;;
13455;SDS011;6800;50.940;6.940;2023-03-01T14:31:02;13.57;;;9.50;;
13455;SDS011;6800;50.940;6.940;2023-03-01T14:35:18;10.90;;;9.80;;
13455;SDS011;6800;50.940;6.940;2023-03-01T14:39:24;10.90;;;9.80;;
13455;SDS011;6800;50.940;6.940;2023-03-01T14:43:27;11.90;;;9.47;;
13455;SDS011;6800;50.940;6.940;2023-03-01T14:47:34;11.20;;;10.00;;
13455;SDS011;6800;50.940;6.940;2023-03-01T14:51:40;10.33;;;9.33;;
13455;SDS011;6800;50.940;6.940;2023-03-01T14:55:44;10.73;;;8.70;;
13455;SDS011;6800;50.940;6.940;2023-03-01T14:59:48;10.53;;;9.47;;
13455;SDS011;6800;50.940;6.940;2023-03-01T15:03:53;13.87;;;10.63;;
13455;SDS011;6800;50.940;6.940;2023-03-01T15:07:57;11.47;;;8.70;;
13455;SDS011;6800;50.940;6.940;2023-03-01T15:12:00;10.87;;;9.60;;
13455;SDS011;6800;50.940;6.940;2023-03-01T15:16:05;11.10;;;10.07;;
13455;SDS011;6800;50.940;6.940;2023-03-01T15:20:16;11.80;;;9.97;;
13455;SDS011;6800;50.940;6.940;2023-03-01T15:24:24;11.13;;;10.03;;
13455;SDS011;6800;50.940;6.940;2023-03-01T15:28:30;11.33;;;10.23;;
13455;SDS011;6800;50.940;6.940;2023-03-01T15:32:35;10.10;;;8.40;;
13455;SDS011;6800;50.940;6.940;2023-03-01T15:36:44;10.33;;;9.33;;
13455;SDS011;6800;50.940;6.940;2023-03-01T15:40:50;10.40;;;9.30;;
13455;SDS011;6800;50.940;6.940;2023-03-01T15:45:08;9.57;;;8.67;;
13455;SDS011;6800;50.940;6.940;2023-03-01T15:53:55;11.23;;;9.33;;
13455;SDS011;6800;50.940;6.940;2023-03-01T15:58:00;10.70;;;9.60;;
13455;SDS011;6800;50.940;6.940;2023-03-01T16:02:22;11.03;;;10.00;;
13455;SDS011;6800;50.940;6.940;2023-03-01T16:06:25;10.63;;;9.27;;
13455;SDS011;6800;50.940;6.940;2023-03-01T16:10:27;10.60;;;9.60;;
13455;SDS011;6800;50.940;6.940;2023-03-01T16:14:29;10.57;;;9.57;;
13455;SDS011;6800;50.940;6.940;2023-03-01T16:18:30;11.13;;;9.87;;
13455;SDS011;6800;50.940;6.940;2023-03-01T16:22:32;10.43;;;8.50;;
13455;SDS011;6800;50.940;6.940;2023-03-01T16:26:33;10.20;;;9.20;;
13455;SDS011;6800;50.940;6.940;2023-03-01T16:30:37;9.23;;;8.43;;
13455;SDS011;6800;50.940;6.940;2023-03-01T16:34:40;10.97;;;9.77;;
13455;SDS011;6800;50.940;6.940;2023-03-01T16:38:42;10.07;;;9.10;;
13455;SDS011;6800;50.940;6.940;2023-03-01T16:42:43;10.40;;;9.40;;
13455;SDS011;6800;50.940;6.940;2023-03-01T16:46:45;10.17;;;8.80;;
13455;SDS011;6800;50.940;6.940;2023-03-01T16:50:54;10.60;;;9.53;;
13455;SDS011;6800;50.940;6.940;2023-03-01T16:54:56;9.57;;;8.57;;
13455;SDS011;6800;50.940;6.940;2023-03-01T16:58:58;10.23;;;8.80;;
13455;SDS011;6800;50.940;6.940;2023-03-01T17:03:01;10.47;;;9.17;;
13455;SDS011;6800;50.940;6.940;2023-03-01T17:07:03;9.50;;;8.50;;
13455;SDS011;6800;50.940;6.940;2023-03-01T17:11:11;10.53;;;9.40;;
13455;SDS011;6800;50.940;6.940;2023-03-01T17:15:15;10.57;;;9.47;;
13455;SDS011;6800;50.940;6.940;2023-03-01T17:19:16;9.63;;;8.63;;
13455;SDS011;6800;50.940;6.940;2023-03-01T17:23:18;9.03;;;8.13;;
13455;SDS011;6800;50.940;6.940;2023-03-01T17:27:20;9.40;;;8.47;;
13455;SDS011;6800;50.940;6.940;2023-03-01T17:31:23;9.90;;;8.93;;
13455;SDS011;6800;50.940;6.940;2023-03-01T17:35:25;9.20;;;8.30;;
13455;SDS011;6800;50.940;6.940;2023-03-01T17:39:26;12.20;;;10.40;;
13455;SDS011;6800;50.940;6.940;2023-03-01T17:43:32;10.10;;;9.20;;
13455;SDS011;6800;50.940;6.940;2023-03-01T17:47:35;10.00;;;9.10;;
13455;SDS011;6800;50.940;6.940;2023-03-01T17:51:36;11.57;;;9.30;;
13455;SDS011;6800;50.940;6.940;2023-03-01T17:55:39;9.83;;;8.83;;
13455;SDS011;6800;50.940;6.940;2023-03-01T17:59:41;10.30;;;9.20;;
13455;SDS011;6800;50.940;6.940;2023-03-01T18:03:43;9.47;;;8.53;;
13455;SDS011;6800;50.940;6.940;2023-03-01T18:07:47;10.57;;;9.47;;
13455;SDS011;6800;50.940;6.940;2023-03-01T18:11:50;11.13;;;9.40;;
13455;SDS011;6800;50.940;6.940;2023-03-01T18:15:51;10.80;;;9.67;;
13455;SDS011;6800;50.940;6.940;2023-03-01T18:19:53;10.83;;;9.00;;
13455;SDS011;6800;50.940;6.940;2023-03-01T18:23:56;11.33;;;10.23;;
13455;SDS011;6800;50.940;6.940;2023-03-01T18:27:59;11.27;;;10.20;;
13455;SDS011;6800;50.940;6.940;2023-03-01T18:32:01;11.43;;;10.13;;
13455;SDS011;6800;50.940;6.940;2023-03-01T18:36:03;12.60;;;10.87;;
13455;SDS011;6800;50.940;6.940;2023-03-01T18:40:06;13.73;;;12.23;;
13455;SDS011;6800;50.940;6.940;2023-03-01T18:44:08;12.10;;;10.90;;
13455;SDS011;6800;50.940;6.940;2023-03-01T18:48:10;14.77;;;11.80;;
13455;SDS011;6800;50.940;6.940;2023-03-01T18:52:14;14.97;;;12.20;;
13455;SDS011;6800;50.940;6.940;2023-03-01T18:56:15;11.80;;;10.70;;
13455;SDS011;6800;50.940;6.940;2023-03-01T19:00:17;10.73;;;9.73;;
13455;SDS011;6800;50.940;6.940;2023-03-01T19:04:19;12.23;;;10.90;;
13455;SDS011;6800;50.940;6.940;2023-03-01T19:08:21;11.40;;;10.20;;
13455;SDS011;6800;50.940;6.940;2023-03-01T19:12:23;12.13;;;11.00;;
13455;SDS011;6800;50.940;6.940;2023-03-01T19:16:25;13.37;;;12.07;;
13455;SDS011;6800;50.940;6.940;2023-03-01T19:20:28;13.83;;;12.43;;
13455;SDS011;6800;50.940;6.940;2023-03-01T19:24:30;12.43;;;11.23;;
13455;SDS011;6800;50.940;6.940;2023-03-01T19:28:33;17.73;;;12.50;;
13455;SDS011;6800;50.940;6.940;2023-03-01T19:32:36;15.47;;;12.47;;
13455;SDS011;6800;50.940;6.940;2023-03-01T19:36:41;12.83;;;11.53;;
13455;SDS011;6800;50.940;6.940;2023-03-01T19:40:43;15.07;;;12.13;;
13455;SDS011;6800;50.940;6.940;2023-03-01T19:44:45;12.90;;;11.70;;
13455;SDS011;6800;50.940;6.940;2023-03-01T19:48:46;14.43;;;12.63;;
13455;SDS011;6800;50.940;6.940;2023-03-01T19:52:50;14.40;;;12.90;;
13455;SDS011;6800;50.940;6.940;2023-03-01T19:56:52;13.77;;;12.37;;
13455;SDS011;6800;50.940;6.940;2023-03-01T20:00:55;13.63;;;12.33;;
13455;SDS011;6800;50.940;6.940;2023-03-01T20:05:01;14.20;;;12.83;;
13455;SDS011;6800;50.940;6.940;2023-03-01T20:09:02;14.93;;;13.53;;
13455;SDS011;6800;50.940;6.940;2023-03-01T20:13:19;13.50;;;12.20;;
13455;SDS011;6800;50.940;6.940;2023-03-01T20:17:21;14.00;;;12.70;;
13455;SDS011;6800;50.940;6.940;2023-03-01T20:21:23;14.03;;;12.53;;
13455;SDS011;6800;50.940;6.940;2023-03-01T20:25:25;15.53;;;13.93;;
13455;SDS011;6800;50.940;6.940;2023-03-01T20:29:26;14.97;;;13.47;;
13455;SDS011;6800;50.940;6.940;2023-03-01T20:33:28;14.47;;;12.90;;
13455;SDS011;6800;50.940;6.940;2023-03-01T20:37:29;13.47;;;12.27;;
13455;SDS011;6800;50.940;6.940;2023-03-01T20:41:30;14.77;;;13.40;;
13455;SDS011;6800;50.940;6.940;2023-03-01T20:45:32;13.67;;;12.47;;
13455;SDS011;6800;50.940;6.940;2023-03-01T20:49:33;14.53;;;13.23;;
13455;SDS011;6800;50.940;6.940;2023-03-01T20:53:35;13.40;;;12.27;;
13455;SDS011;6800;50.940;6.940;2023-03-01T20:57:36;13.60;;;12.33;;
13455;SDS011;6800;50.940;6.940;2023-03-01T21:01:38;13.93;;;12.53;;
13455;SDS011;6800;50.940;6.940;2023-03-01T21:05:39;14.70;;;13.27;;
13455;SDS011;6800;50.940;6.940;2023-03-01T21:09:41;14.23;;;12.93;;
13455;SDS011;6800;50.940;6.940;2023-03-01T21:13:44;16.63;;;14.20;;
13455;SDS011;6800;50.940;6.940;2023-03-01T21:17:46;15.77;;;14.37;;
13455;SDS011;6800;50.940;6.940;2023-03-01T21:21:48;15.03;;;13.53;;
13455;SDS011;6800;50.940;6.940;2023-03-01T21:30:11;13.03;;;10.67;;
13455;SDS011;6800;50.940;6.940;2023-03-01T21:34:13;11.93;;;9.57;;
13455;SDS011;6800;50.940;6.940;2023-03-01T21:38:14;12.90;;;10.77;;
13455;SDS011;6800;50.940;6.940;2023-03-01T21:42:17;11.80;;;9.77;;
13455;SDS011;6800;50.940;6.940;2023-03-01T21:46:19;11.87;;;9.43;;
13455;SDS011;6800;50.940;6.940;2023-03-01T21:50:23;11.53;;;9.57;;
13455;SDS011;6800;50.940;6.940;2023-03-01T21:54:24;10.93;;;9.23;;
13455;SDS011;6800;50.940;6.940;2023-03-01T21:58:26;10.53;;;9.00;;
13455;SDS011;6800;50.940;6.940;2023-03-01T22:02:29;11.17;;;10.07;;
13455;SDS011;6800;50.940;6.940;2023-03-01T22:06:33;11.43;;;9.60;;
13455;SDS011;6800;50.940;6.940;2023-03-01T22:10:40;11.70;;;9.97;;
13455;SDS011;6800;50.940;6.940;2023-03-01T22:14:46;11.20;;;8.77;;
13455;SDS011;6800;50.940;6.940;2023-03-01T22:18:52;13.37;;;10.47;;
13455;SDS011;6800;50.940;6.940;2023-03-01T22:22:54;12.30;;;9.90;;
13455;SDS011;6800;50.940;6.940;2023-03-01T22:26:58;12.40;;;9.53;;
13455;SDS011;6800;50.940;6.940;2023-03-01T22:31:03;10.20;;;9.07;;
13455;SDS011;6800;50.940;6.940;2023-03-01T22:35:05;10.43;;;9.30;;
13455;SDS011;6800;50.940;6.940;2023-03-01T22:39:07;11.37;;;9.57;;
13455;SDS011;6800;50.940;6.940;2023-03-01T22:43:11;11.77;;;10.27;;
13455;SDS011;6800;50.940;6.940;2023-03-01T22:47:12;11.70;;;10.03;;
13455;SDS011;6800;50.940;6.940;2023-03-01T22:51:18;10.13;;;9.03;;
13455;SDS011;6800;50.940;6.940;2023-03-01T22:55:22;10.57;;;9.40;;
13455;SDS011;6800;50.940;6.940;2023-03-01T22:59:23;11.57;;;9.70;;
13455;SDS011;6800;50.940;6.940;2023-03-01T23:03:24;10.47;;;8.87;;
13455;SDS011;6800;50.940;6.940;2023-03-01T23:07:26;11.27;;;8.97;;
13455;SDS011;6800;50.940;6.940;2023-03-01T23:11:27;10.23;;;8.10;;
13455;SDS011;6800;50.940;6.940;2023-03-01T23:15:29;10.30;;;9.13;;
13455;SDS011;6800;50.940;6.940;2023-03-01T23:19:31;10.63;;;9.47;;
13455;SDS011;6800;50.940;6.940;2023-03-01T23:23:33;10.73;;;9.33;;
13455;SDS011;6800;50.940;6.940;2023-03-01T23:27:35;9.97;;;8.33;;
13455;SDS011;6800;50.940;6.940;2023-03-01T23:31:37;9.67;;;8.63;;
13455;SDS011;6800;50.940;6.940;2023-03-01T23:35:38;11.63;;;9.50;;
13455;SDS011;6800;50.940;6.940;2023-03-01T23:39:39;12.77;;;9.53;;
13455;SDS011;6800;50.940;6.940;2023-03-01T23:43:48;11.07;;;9.50;;
13455;SDS011;6800;50.940;6.940;2023-03-01T23:47:52;11.83;;;8.67;;
13455;SDS011;6800;50.940;6.940;2023-03-01T23:51:55;10.73;;;9.63;;
13455;SDS011;6800;50.940;6.940;2023-03-01T23:55:57;11.63;;;9.67;;
13455;SDS011;6800;50.940;6.940;2023-03-01T23:59:58;13.27;;;10.07;;
